createdAt,value
2022-12-14T00:04:04.849Z,67.19556
2022-12-14T00:09:06.593Z,64.14858
2022-12-14T00:14:08.211Z,66.64425
2022-12-14T00:19:09.838Z,68.00893
2022-12-14T00:24:11.469Z,66.1195
2022-12-14T00:29:13.098Z,65.97288
2022-12-14T00:34:14.752Z,64.92641
2022-12-14T00:39:16.647Z,65.45792
2022-12-14T00:44:18.260Z,65.87191
2022-12-14T00:49:19.878Z,65.1398
2022-12-14T00:54:21.495Z,67.35805
2022-12-14T00:59:27.249Z,64.12016
2022-12-14T01:04:29.072Z,63.97076
2022-12-14T01:09:30.713Z,64.22532
2022-12-14T01:14:32.322Z,64.38765
2022-12-14T01:19:33.962Z,64.37052
2022-12-14T01:24:35.666Z,66.32057
2022-12-14T01:29:37.260Z,68.29496
2022-12-14T01:34:38.944Z,66.34491
2022-12-14T01:39:40.620Z,64.78031
2022-12-14T01:44:42.520Z,66.47311
2022-12-14T01:49:44.270Z,66.31309
2022-12-14T01:54:49.169Z,66.48128
2022-12-14T01:59:50.873Z,67.06132
2022-12-14T02:04:52.546Z,67.06207
2022-12-14T02:09:54.184Z,67.54669
2022-12-14T02:14:55.812Z,66.03516
2022-12-14T02:19:57.453Z,65.35503
2022-12-14T02:24:59.065Z,66.21581
2022-12-14T02:30:00.721Z,65.99015
2022-12-14T02:35:03.413Z,67.8401
2022-12-14T02:40:05.020Z,66.11307
2022-12-14T02:45:06.624Z,65.01126
2022-12-14T02:50:08.348Z,64.17484
2022-12-14T02:55:09.944Z,65.77444
2022-12-14T03:00:11.532Z,65.59998
2022-12-14T03:05:13.316Z,67.18097
2022-12-14T03:10:15.186Z,67.32572
2022-12-14T03:15:16.799Z,65.76063
2022-12-14T03:20:18.488Z,67.14981
2022-12-14T03:25:20.116Z,65.08561
2022-12-14T03:30:57.750Z,66.6089
2022-12-14T03:36:00.470Z,66.35877
2022-12-14T03:41:02.059Z,66.97649
2022-12-14T03:46:04.202Z,66.55544
2022-12-14T03:51:05.896Z,66.36535
2022-12-14T03:56:07.505Z,67.48748
2022-12-14T04:01:09.215Z,66.58462
2022-12-14T04:06:11.048Z,67.5144
2022-12-14T04:11:12.847Z,67.71737
2022-12-14T04:16:14.522Z,67.78723
2022-12-14T04:21:16.203Z,66.98265
2022-12-14T04:26:17.808Z,69.52564
2022-12-14T04:31:19.501Z,67.01849
2022-12-14T04:36:21.149Z,68.21161
2022-12-14T04:41:22.754Z,68.93727
2022-12-14T04:46:24.458Z,68.55356
2022-12-14T04:51:26.052Z,65.66864
2022-12-14T04:56:27.738Z,66.22072
2022-12-14T05:01:29.739Z,66.51214
2022-12-14T05:06:31.449Z,66.68363
2022-12-14T05:11:53.339Z,66.5363
2022-12-14T05:16:56.103Z,66.92265
2022-12-14T05:21:57.751Z,67.93973
2022-12-14T05:26:59.358Z,68.09383
2022-12-14T05:32:01.013Z,68.1964
2022-12-14T05:37:02.766Z,65.68901
2022-12-14T05:42:04.401Z,67.36917
2022-12-14T05:47:06.017Z,67.00279
2022-12-14T05:52:07.639Z,69.86038
2022-12-14T05:57:09.283Z,68.09552
2022-12-14T06:02:11.127Z,69.05767
2022-12-14T06:07:12.872Z,69.43374
2022-12-14T06:12:14.483Z,71.90956
2022-12-14T06:17:16.077Z,69.7522
2022-12-14T06:22:17.774Z,69.42
2022-12-14T06:27:19.409Z,67.42549
2022-12-14T06:32:21.043Z,70.33578
2022-12-14T06:37:22.705Z,67.12533
2022-12-14T06:42:24.538Z,67.19292
2022-12-14T06:47:26.211Z,68.37431
2022-12-14T06:52:27.860Z,68.16038
2022-12-14T06:57:29.479Z,67.87868
2022-12-14T07:02:31.383Z,68.42736
2022-12-14T07:07:33.225Z,67.2546
2022-12-14T07:12:34.929Z,67.43648
2022-12-14T07:17:36.582Z,66.30778
2022-12-14T07:22:38.207Z,69.79618
2022-12-14T07:27:39.814Z,71.28159
2022-12-14T07:32:41.429Z,70.13958
2022-12-14T07:37:43.016Z,67.03527
2022-12-14T07:42:50.728Z,68.16231
2022-12-14T07:47:52.342Z,67.43109
2022-12-14T07:52:53.948Z,66.64381
2022-12-14T07:57:55.573Z,66.54965
2022-12-14T08:02:57.201Z,66.37311
2022-12-14T08:07:58.797Z,66.62613
2022-12-14T08:13:00.394Z,66.8076
2022-12-14T08:18:02.017Z,67.03429
2022-12-14T08:23:03.611Z,67.62343
2022-12-14T08:28:05.242Z,66.93293
2022-12-14T08:33:06.881Z,67.92443
2022-12-14T08:38:08.637Z,68.03841
2022-12-14T08:43:10.244Z,66.97055
2022-12-14T08:48:11.870Z,67.90611
2022-12-14T08:53:13.506Z,69.50035
2022-12-14T08:58:15.183Z,66.89704
2022-12-14T09:03:16.902Z,66.48265
2022-12-14T09:08:18.570Z,68.58276
2022-12-14T09:13:20.292Z,67.68489
2022-12-14T09:18:21.930Z,67.38645
2022-12-14T09:23:23.518Z,66.81294
2022-12-14T09:28:25.153Z,66.65354
2022-12-14T09:33:27.351Z,67.75067
2022-12-14T09:38:29.245Z,70.44373
2022-12-14T09:43:36.755Z,70.5592
2022-12-14T09:48:39.179Z,70.77858
2022-12-14T09:53:40.830Z,71.52141
2022-12-14T09:58:42.436Z,67.18511
2022-12-14T10:03:44.250Z,67.42309
2022-12-14T10:08:51.000Z,67.36708
2022-12-14T10:13:56.251Z,66.5143
2022-12-14T10:18:59.913Z,67.4193
2022-12-14T10:24:02.613Z,67.45239
2022-12-14T10:29:04.220Z,71.23823
2022-12-14T10:34:11.928Z,74.52148
2022-12-14T10:39:13.885Z,74.02205
2022-12-14T10:44:15.497Z,73.58641
2022-12-14T10:49:17.174Z,70.66266
2022-12-14T10:54:18.819Z,68.38784
2022-12-14T10:59:20.438Z,73.30098
2022-12-14T11:04:22.045Z,71.785
2022-12-14T11:09:23.733Z,70.54782
2022-12-14T11:14:25.349Z,69.61708
2022-12-14T11:19:27.106Z,69.32188
2022-12-14T11:24:29.007Z,72.04301
2022-12-14T11:29:30.618Z,73.975
2022-12-14T11:34:32.259Z,70.87806
2022-12-14T11:39:33.928Z,69.66039
2022-12-14T11:44:35.566Z,70.69502
2022-12-14T11:49:37.131Z,68.49615
2022-12-14T11:54:38.884Z,67.62144
2022-12-14T11:59:40.476Z,66.00324
2022-12-14T12:04:42.049Z,68.31001
2022-12-14T12:09:43.703Z,67.40832
2022-12-14T12:14:45.323Z,68.78331
2022-12-14T12:19:47.833Z,68.55038
2022-12-14T12:25:16.321Z,69.2517
2022-12-14T12:30:26.332Z,69.94183
2022-12-14T12:35:27.942Z,68.71852
2022-12-14T12:40:29.520Z,68.14998
2022-12-14T12:45:31.164Z,69.85721
2022-12-14T12:50:32.888Z,68.73481
2022-12-14T12:55:34.537Z,70.30314
2022-12-14T13:00:36.151Z,70.22578
2022-12-14T13:05:47.188Z,69.80133
2022-12-14T13:15:57.644Z,69.59998
2022-12-14T13:20:59.258Z,70.00467
2022-12-14T13:26:00.872Z,67.75959
2022-12-14T13:31:02.573Z,67.53809
2022-12-14T13:36:04.224Z,69.50994
2022-12-14T13:41:05.791Z,72.78694
2022-12-14T13:46:07.455Z,67.83331
2022-12-14T13:51:09.201Z,66.40714
2022-12-14T13:56:10.824Z,66.25133
2022-12-14T14:01:12.594Z,69.54594
2022-12-14T14:06:14.298Z,68.50852
2022-12-14T14:16:37.388Z,66.18803
2022-12-14T14:21:52.505Z,65.86144
2022-12-14T14:27:15.554Z,67.39756
2022-12-14T14:32:17.164Z,68.04278
2022-12-14T14:37:18.768Z,68.24863
2022-12-14T14:42:20.438Z,68.35338
2022-12-14T14:47:22.094Z,67.80331
2022-12-14T14:52:23.759Z,65.91681
2022-12-14T14:57:25.373Z,64.68318
2022-12-14T15:02:27.007Z,67.141
2022-12-14T15:07:28.597Z,69.65001
2022-12-14T15:12:30.232Z,70.86201
2022-12-14T15:17:31.836Z,69.48364
2022-12-14T15:22:33.445Z,67.27658
2022-12-14T15:27:35.060Z,65.02179
2022-12-14T15:32:36.668Z,64.31692
2022-12-14T15:37:38.404Z,65.72279
2022-12-14T15:42:39.991Z,64.84906
2022-12-14T15:47:41.759Z,64.44825
2022-12-14T15:52:43.396Z,66.63886
2022-12-14T15:57:45.060Z,65.78188
2022-12-14T16:02:48.168Z,64.78679
2022-12-14T16:07:49.871Z,65.42958
2022-12-14T16:12:51.464Z,65.71924
2022-12-14T16:18:00.716Z,64.50219
2022-12-14T16:23:03.852Z,64.12309
2022-12-14T16:28:05.451Z,64.81145
2022-12-14T16:33:07.047Z,68.08825
2022-12-14T16:38:08.651Z,66.08367
2022-12-14T16:43:10.313Z,64.57542
2022-12-14T16:48:12.029Z,64.89809
2022-12-14T16:53:13.804Z,64.40782
2022-12-14T16:58:15.445Z,63.14783
2022-12-14T17:03:17.212Z,65.16318
2022-12-14T17:08:18.838Z,61.71248
2022-12-14T17:13:20.473Z,63.81318
2022-12-14T17:18:22.073Z,66.77481
2022-12-14T17:23:23.674Z,66.43298
2022-12-14T17:28:25.275Z,64.21521
2022-12-14T17:33:27.293Z,61.95048
2022-12-14T17:38:29.171Z,61.82009
2022-12-14T17:43:31.103Z,60.73736
2022-12-14T17:48:33.069Z,61.36239
2022-12-14T17:53:34.691Z,60.89059
2022-12-14T17:58:36.316Z,61.90014
2022-12-14T18:03:38.071Z,62.26241
2022-12-14T18:08:39.740Z,62.77731
2022-12-14T18:13:41.352Z,61.3131
2022-12-14T18:18:42.982Z,58.86064
2022-12-14T18:23:45.906Z,61.84002
2022-12-14T18:28:47.903Z,59.65321
2022-12-14T18:33:50.839Z,59.59992
2022-12-14T18:38:53.353Z,59.84271
2022-12-14T18:43:55.457Z,59.10642
2022-12-14T18:48:58.370Z,59.6737
2022-12-14T18:54:00.993Z,57.92233
2022-12-14T18:59:02.913Z,59.32463
2022-12-14T19:04:05.518Z,57.98891
2022-12-14T19:09:08.735Z,57.67192
2022-12-14T19:14:10.827Z,55.55412
2022-12-14T19:19:13.544Z,55.71511
2022-12-14T19:24:15.326Z,60.3307
2022-12-14T19:29:18.083Z,57.95911
2022-12-14T19:34:20.861Z,56.9809
2022-12-14T19:39:22.840Z,57.60815
2022-12-14T19:44:24.982Z,55.71592
2022-12-14T19:49:26.987Z,54.26628
2022-12-14T19:54:29.209Z,53.20068
2022-12-14T19:59:31.097Z,53.27947
2022-12-14T20:04:33.200Z,50.57651
2022-12-14T20:09:35.224Z,50.95814
2022-12-14T20:14:37.044Z,52.41555
2022-12-14T20:19:39.463Z,52.1018
2022-12-14T20:24:41.411Z,55.7349
2022-12-14T20:29:43.084Z,53.37395
2022-12-14T20:34:44.792Z,52.89613
2022-12-14T20:39:46.496Z,51.05172
2022-12-14T20:44:49.361Z,52.73291
2022-12-14T20:49:51.279Z,53.25741
2022-12-14T20:54:52.948Z,52.20468
2022-12-14T20:59:54.547Z,50.70108
2022-12-14T21:04:56.193Z,51.38928
2022-12-14T21:09:57.792Z,52.85973
2022-12-14T21:14:59.430Z,53.70674
2022-12-14T21:20:01.490Z,52.9485
2022-12-14T21:25:05.267Z,53.34066
2022-12-14T21:30:07.576Z,51.80168
2022-12-14T21:35:09.135Z,51.89767
2022-12-14T21:40:10.723Z,51.61219
2022-12-14T21:45:12.324Z,50.37211
2022-12-14T21:50:13.962Z,50.51683
2022-12-14T21:55:15.557Z,51.02714
2022-12-14T22:00:17.209Z,52.60586
2022-12-14T22:05:18.818Z,52.63947
2022-12-14T22:10:24.906Z,56.03176
2022-12-14T22:15:26.956Z,56.02245
2022-12-14T22:20:28.660Z,56.71147
2022-12-14T22:25:30.493Z,57.65797
2022-12-14T22:30:32.176Z,60.77272
2022-12-14T22:35:33.842Z,60.74436
2022-12-14T22:40:35.449Z,58.42195
2022-12-14T22:45:37.086Z,60.6708
2022-12-14T22:50:38.802Z,63.99901
2022-12-14T22:55:40.414Z,62.42474
2022-12-14T23:00:42.188Z,62.11772
2022-12-14T23:05:43.831Z,64.12868
2022-12-14T23:10:45.457Z,63.19961
2022-12-14T23:15:51.581Z,65.48212
2022-12-14T23:20:53.204Z,64.56888
2022-12-14T23:25:54.778Z,65.46861
2022-12-14T23:30:56.531Z,66.31527
2022-12-14T23:35:58.366Z,62.86005
2022-12-14T23:41:00.047Z,61.80347
2022-12-14T23:46:01.798Z,61.30836
2022-12-14T23:51:03.443Z,62.59081
2022-12-14T23:56:05.059Z,67.61351
